sensor_id;sensor_type;location;lat;lon;timestamp;pressure;altitude;pressure_sealevel;temperature;humidity
21730;BME280;11027;51.030;13.812;2023-04-07T00:02:11;100524.28;;;5.10;53.20
21730;BME280;11027;51.030;13.812;2023-04-07T00:04:37;100523.25;;;5.01;53.26
21730;BME280;11027;51.030;13.812;2023-04-07T00:07:02;100515.41;;;4.98;53.50
21730;BME280;11027;51.030;13.812;2023-04-07T00:09:27;100521.81;;;4.97;53.66
21730;BME280;11027;51.030;13.812;2023-04-07T00:11:52;100516.28;;;4.99;53.36
21730;BME280;11027;51.030;13.812;2023-04-07T00:14:18;100520.09;;;4.96;53.65
21730;BME280;11027;51.030;13.812;2023-04-07T00:16:43;100513.97;;;4.94;53.67
21730;BME280;11027;51.030;13.812;2023-04-07T00:19:08;100518.78;;;4.91;53.66
21730;BME280;11027;51.030;13.812;2023-04-07T00:21:33;100519.91;;;4.88;53.69
21730;BME280;11027;51.030;13.812;2023-04-07T00:23:59;100518.34;;;4.86;53.90
21730;BME280;11027;51.030;13.812;2023-04-07T00:26:24;100520.47;;;4.82;54.00
21730;BME280;11027;51.030;13.812;2023-04-07T00:28:55;100515.06;;;4.82;53.97
21730;BME280;11027;51.030;13.812;2023-04-07T00:31:20;100520.75;;;4.79;54.04
21730;BME280;11027;51.030;13.812;2023-04-07T00:33:45;100519.03;;;4.78;53.98
21730;BME280;11027;51.030;13.812;2023-04-07T00:36:12;100526.81;;;4.71;54.18
21730;BME280;11027;51.030;13.812;2023-04-07T00:38:37;100517.41;;;4.66;54.15
21730;BME280;11027;51.030;13.812;2023-04-07T00:41:03;100509.31;;;4.66;54.22
21730;BME280;11027;51.030;13.812;2023-04-07T00:43:28;100512.41;;;4.61;54.53
21730;BME280;11027;51.030;13.812;2023-04-07T00:45:53;100510.97;;;4.57;54.56
21730;BME280;11027;51.030;13.812;2023-04-07T00:48:19;100507.81;;;4.52;54.76
21730;BME280;11027;51.030;13.812;2023-04-07T00:50:44;100505.22;;;4.50;55.16
21730;BME280;11027;51.030;13.812;2023-04-07T00:53:11;100507.22;;;4.48;55.10
21730;BME280;11027;51.030;13.812;2023-04-07T00:55:36;100503.78;;;4.46;55.19
21730;BME280;11027;51.030;13.812;2023-04-07T00:58:01;100498.69;;;4.43;55.47
21730;BME280;11027;51.030;13.812;2023-04-07T01:00:30;100496.94;;;4.42;55.51
21730;BME280;11027;51.030;13.812;2023-04-07T01:02:58;100493.81;;;4.37;55.75
21730;BME280;11027;51.030;13.812;2023-04-07T01:05:41;100490.63;;;4.32;55.77
21730;BME280;11027;51.030;13.812;2023-04-07T01:08:14;100497.41;;;4.26;56.00
21730;BME280;11027;51.030;13.812;2023-04-07T01:10:50;100490.44;;;4.24;56.05
21730;BME280;11027;51.030;13.812;2023-04-07T01:13:37;100486.59;;;4.16;56.21
21730;BME280;11027;51.030;13.812;2023-04-07T01:16:11;100484.97;;;4.14;56.59
21730;BME280;11027;51.030;13.812;2023-04-07T01:18:38;100485.13;;;4.12;56.50
21730;BME280;11027;51.030;13.812;2023-04-07T01:21:13;100475.72;;;4.07;56.60
21730;BME280;11027;51.030;13.812;2023-04-07T01:24:00;100482.50;;;4.01;56.83
21730;BME280;11027;51.030;13.812;2023-04-07T01:26:32;100470.25;;;3.97;56.97
21730;BME280;11027;51.030;13.812;2023-04-07T01:29:06;100468.56;;;3.96;56.97
21730;BME280;11027;51.030;13.812;2023-04-07T01:31:39;100466.59;;;3.98;57.00
21730;BME280;11027;51.030;13.812;2023-04-07T01:34:08;100469.13;;;3.99;57.09
21730;BME280;11027;51.030;13.812;2023-04-07T01:36:34;100466.59;;;3.98;56.85
21730;BME280;11027;51.030;13.812;2023-04-07T01:39:00;100466.84;;;3.95;57.01
21730;BME280;11027;51.030;13.812;2023-04-07T01:41:26;100463.66;;;3.90;57.25
21730;BME280;11027;51.030;13.812;2023-04-07T01:43:53;100461.38;;;3.85;57.53
21730;BME280;11027;51.030;13.812;2023-04-07T01:46:19;100468.84;;;3.81;57.34
21730;BME280;11027;51.030;13.812;2023-04-07T01:48:46;100462.28;;;3.74;57.61
21730;BME280;11027;51.030;13.812;2023-04-07T01:51:12;100462.53;;;3.71;57.77
21730;BME280;11027;51.030;13.812;2023-04-07T01:53:41;100466.94;;;3.72;57.80
21730;BME280;11027;51.030;13.812;2023-04-07T01:56:07;100465.38;;;3.70;57.84
21730;BME280;11027;51.030;13.812;2023-04-07T01:58:32;100464.06;;;3.64;58.13
21730;BME280;11027;51.030;13.812;2023-04-07T02:00:57;100464.28;;;3.61;57.96
21730;BME280;11027;51.030;13.812;2023-04-07T02:03:45;100468.22;;;3.57;58.14
21730;BME280;11027;51.030;13.812;2023-04-07T02:06:17;100464.56;;;3.58;58.15
21730;BME280;11027;51.030;13.812;2023-04-07T02:08:46;100461.38;;;3.53;58.30
21730;BME280;11027;51.030;13.812;2023-04-07T02:11:14;100454.53;;;3.49;58.26
21730;BME280;11027;51.030;13.812;2023-04-07T02:13:41;100459.31;;;3.45;58.42
21730;BME280;11027;51.030;13.812;2023-04-07T02:16:09;100461.56;;;3.40;58.71
21730;BME280;11027;51.030;13.812;2023-04-07T02:18:35;100460.72;;;3.39;58.57
21730;BME280;11027;51.030;13.812;2023-04-07T02:21:03;100460.72;;;3.39;58.64
21730;BME280;11027;51.030;13.812;2023-04-07T02:23:29;100457.28;;;3.37;58.75
21730;BME280;11027;51.030;13.812;2023-04-07T02:25:56;100455.56;;;3.36;58.92
21730;BME280;11027;51.030;13.812;2023-04-07T02:28:22;100449.22;;;3.37;58.94
21730;BME280;11027;51.030;13.812;2023-04-07T02:30:47;100456.41;;;3.37;59.00
21730;BME280;11027;51.030;13.812;2023-04-07T02:33:12;100447.88;;;3.32;59.07
21730;BME280;11027;51.030;13.812;2023-04-07T02:35:38;100440.16;;;3.27;59.06
21730;BME280;11027;51.030;13.812;2023-04-07T02:38:03;100441.03;;;3.28;59.06
21730;BME280;11027;51.030;13.812;2023-04-07T02:40:28;100441.53;;;3.22;59.25
21730;BME280;11027;51.030;13.812;2023-04-07T02:42:53;100446.94;;;3.22;59.32
21730;BME280;11027;51.030;13.812;2023-04-07T02:45:19;100447.28;;;3.17;59.52
21730;BME280;11027;51.030;13.812;2023-04-07T02:47:44;100446.81;;;3.12;59.63
21730;BME280;11027;51.030;13.812;2023-04-07T02:50:10;100443.41;;;3.10;59.59
21730;BME280;11027;51.030;13.812;2023-04-07T02:52:35;100439.72;;;3.11;59.49
21730;BME280;11027;51.030;13.812;2023-04-07T02:55:00;100441.44;;;3.12;59.41
21730;BME280;11027;51.030;13.812;2023-04-07T02:57:25;100438.88;;;3.10;59.58
21730;BME280;11027;51.030;13.812;2023-04-07T02:59:51;100434.59;;;3.08;59.69
21730;BME280;11027;51.030;13.812;2023-04-07T03:02:16;100435.22;;;3.11;59.57
21730;BME280;11027;51.030;13.812;2023-04-07T03:04:41;100433.59;;;3.09;59.65
21730;BME280;11027;51.030;13.812;2023-04-07T03:07:07;100435.72;;;3.05;59.79
21730;BME280;11027;51.030;13.812;2023-04-07T03:09:32;100429.44;;;3.05;59.84
21730;BME280;11027;51.030;13.812;2023-04-07T03:11:57;100425.19;;;3.02;59.80
21730;BME280;11027;51.030;13.812;2023-04-07T03:14:22;100428.00;;;3.00;59.99
21730;BME280;11027;51.030;13.812;2023-04-07T03:16:48;100429.84;;;3.00;59.94
21730;BME280;11027;51.030;13.812;2023-04-07T03:19:13;100429.72;;;3.02;59.71
21730;BME280;11027;51.030;13.812;2023-04-07T03:21:38;100426.91;;;3.03;59.91
21730;BME280;11027;51.030;13.812;2023-04-07T03:24:05;100427.75;;;3.04;59.71
21730;BME280;11027;51.030;13.812;2023-04-07T03:26:30;100428.00;;;3.00;59.83
21730;BME280;11027;51.030;13.812;2023-04-07T03:28:56;100417.84;;;3.04;59.57
21730;BME280;11027;51.030;13.812;2023-04-07T03:31:21;100418.09;;;3.01;59.78
21730;BME280;11027;51.030;13.812;2023-04-07T03:33:48;100418.56;;;2.95;59.86
21730;BME280;11027;51.030;13.812;2023-04-07T03:36:13;100412.63;;;2.91;60.00
21730;BME280;11027;51.030;13.812;2023-04-07T03:38:39;100418.00;;;2.91;59.99
21730;BME280;11027;51.030;13.812;2023-04-07T03:41:04;100412.63;;;2.91;60.16
21730;BME280;11027;51.030;13.812;2023-04-07T03:43:29;100415.41;;;2.90;60.05
21730;BME280;11027;51.030;13.812;2023-04-07T03:45:55;100411.16;;;2.87;60.24
21730;BME280;11027;51.030;13.812;2023-04-07T03:48:20;100407.72;;;2.85;60.38
21730;BME280;11027;51.030;13.812;2023-04-07T03:50:45;100407.59;;;2.87;60.20
21730;BME280;11027;51.030;13.812;2023-04-07T03:53:11;100414.81;;;2.86;60.24
21730;BME280;11027;51.030;13.812;2023-04-07T03:55:39;100418.00;;;2.91;60.19
21730;BME280;11027;51.030;13.812;2023-04-07T03:58:04;100410.03;;;2.90;60.23
21730;BME280;11027;51.030;13.812;2023-04-07T04:00:30;100413.97;;;2.86;60.36
21730;BME280;11027;51.030;13.812;2023-04-07T04:02:57;100409.94;;;2.80;60.30
21730;BME280;11027;51.030;13.812;2023-04-07T04:05:22;100420.69;;;2.80;60.51
21730;BME280;11027;51.030;13.812;2023-04-07T04:07:48;100412.63;;;2.80;60.71
21730;BME280;11027;51.030;13.812;2023-04-07T04:10:15;100413.63;;;2.79;60.76
21730;BME280;11027;51.030;13.812;2023-04-07T04:12:40;100424.59;;;2.76;60.95
21730;BME280;11027;51.030;13.812;2023-04-07T04:15:06;100432.22;;;2.71;61.09
21730;BME280;11027;51.030;13.812;2023-04-07T04:17:31;100427.06;;;2.68;61.07
21730;BME280;11027;51.030;13.812;2023-04-07T04:19:57;100430.75;;;2.67;61.33
21730;BME280;11027;51.030;13.812;2023-04-07T04:22:22;100427.56;;;2.62;61.23
21730;BME280;11027;51.030;13.812;2023-04-07T04:24:47;100434.66;;;2.63;61.37
21730;BME280;11027;51.030;13.812;2023-04-07T04:27:12;100424.88;;;2.62;61.35
21730;BME280;11027;51.030;13.812;2023-04-07T04:29:38;100427.34;;;2.65;61.33
21730;BME280;11027;51.030;13.812;2023-04-07T04:32:03;100431.72;;;2.66;61.34
21730;BME280;11027;51.030;13.812;2023-04-07T04:34:28;100429.13;;;2.64;61.50
21730;BME280;11027;51.030;13.812;2023-04-07T04:36:53;100430.25;;;2.62;61.52
21730;BME280;11027;51.030;13.812;2023-04-07T04:39:19;100434.91;;;2.59;61.52
21730;BME280;11027;51.030;13.812;2023-04-07T04:41:44;100430.75;;;2.55;61.66
21730;BME280;11027;51.030;13.812;2023-04-07T04:44:10;100433.44;;;2.55;61.56
21730;BME280;11027;51.030;13.812;2023-04-07T04:46:36;100433.66;;;2.52;61.55
21730;BME280;11027;51.030;13.812;2023-04-07T04:49:01;100436.50;;;2.51;61.66
21730;BME280;11027;51.030;13.812;2023-04-07T04:51:26;100437.34;;;2.51;61.80
21730;BME280;11027;51.030;13.812;2023-04-07T04:53:52;100432.06;;;2.50;61.65
21730;BME280;11027;51.030;13.812;2023-04-07T04:56:17;100439.31;;;2.49;61.88
21730;BME280;11027;51.030;13.812;2023-04-07T04:58:42;100433.19;;;2.47;61.78
21730;BME280;11027;51.030;13.812;2023-04-07T05:01:13;100433.19;;;2.47;61.66
21730;BME280;11027;51.030;13.812;2023-04-07T05:03:39;100437.56;;;2.48;61.93
21730;BME280;11027;51.030;13.812;2023-04-07T05:06:04;100430.97;;;2.52;61.93
21730;BME280;11027;51.030;13.812;2023-04-07T05:08:30;100435.13;;;2.56;61.77
21730;BME280;11027;51.030;13.812;2023-04-07T05:10:56;100427.56;;;2.62;61.83
21730;BME280;11027;51.030;13.812;2023-04-07T05:13:21;100430.75;;;2.67;61.88
21730;BME280;11027;51.030;13.812;2023-04-07T05:15:46;100433.91;;;2.72;61.85
21730;BME280;11027;51.030;13.812;2023-04-07T05:18:12;100427.31;;;2.76;61.67
21730;BME280;11027;51.030;13.812;2023-04-07T05:20:38;100424.38;;;2.79;61.46
21730;BME280;11027;51.030;13.812;2023-04-07T05:23:03;100430.50;;;2.81;61.59
21730;BME280;11027;51.030;13.812;2023-04-07T05:25:29;100419.84;;;2.79;61.49
21730;BME280;11027;51.030;13.812;2023-04-07T05:27:54;100426.91;;;2.80;61.27
21730;BME280;11027;51.030;13.812;2023-04-07T05:30:19;100421.53;;;2.80;61.36
21730;BME280;11027;51.030;13.812;2023-04-07T05:32:45;100418.84;;;2.80;61.42
21730;BME280;11027;51.030;13.812;2023-04-07T05:35:10;100427.19;;;2.77;61.79
21730;BME280;11027;51.030;13.812;2023-04-07T05:37:35;100421.81;;;2.77;61.45
21730;BME280;11027;51.030;13.812;2023-04-07T05:40:01;100427.41;;;2.74;61.63
21730;BME280;11027;51.030;13.812;2023-04-07T05:42:26;100431.22;;;2.72;61.69
21730;BME280;11027;51.030;13.812;2023-04-07T05:44:51;100418.75;;;2.71;61.68
21730;BME280;11027;51.030;13.812;2023-04-07T05:47:16;100419.50;;;2.73;61.61
21730;BME280;11027;51.030;13.812;2023-04-07T05:49:42;100428.28;;;2.75;61.60
21730;BME280;11027;51.030;13.812;2023-04-07T05:52:11;100422.66;;;2.78;61.51
21730;BME280;11027;51.030;13.812;2023-04-07T05:54:36;100428.03;;;2.78;61.57
21730;BME280;11027;51.030;13.812;2023-04-07T05:57:01;100419.00;;;2.79;61.52
21730;BME280;11027;51.030;13.812;2023-04-07T05:59:27;100417.03;;;2.81;61.46
21730;BME280;11027;51.030;13.812;2023-04-07T06:01:53;100429.50;;;2.82;61.43
21730;BME280;11027;51.030;13.812;2023-04-07T06:04:18;100420.47;;;2.83;61.50
21730;BME280;11027;51.030;13.812;2023-04-07T06:06:43;100418.22;;;2.88;61.46
21730;BME280;11027;51.030;13.812;2023-04-07T06:09:08;100422.38;;;2.92;61.38
21730;BME280;11027;51.030;13.812;2023-04-07T06:11:34;100421.66;;;2.90;61.48
21730;BME280;11027;51.030;13.812;2023-04-07T06:13:59;100416.03;;;2.93;61.40
21730;BME280;11027;51.030;13.812;2023-04-07T06:16:24;100423.72;;;2.98;61.37
21730;BME280;11027;51.030;13.812;2023-04-07T06:18:50;100424.34;;;3.02;61.57
21730;BME280;11027;51.030;13.812;2023-04-07T06:21:15;100422.38;;;3.04;61.43
21730;BME280;11027;51.030;13.812;2023-04-07T06:23:40;100425.78;;;3.06;61.18
21730;BME280;11027;51.030;13.812;2023-04-07T06:26:09;100427.25;;;3.10;61.06
21730;BME280;11027;51.030;13.812;2023-04-07T06:28:36;100418.91;;;3.13;60.90
21730;BME280;11027;51.030;13.812;2023-04-07T06:31:01;100421.09;;;3.19;61.04
21730;BME280;11027;51.030;13.812;2023-04-07T06:33:26;100416.91;;;3.26;61.01
21730;BME280;11027;51.030;13.812;2023-04-07T06:35:52;100417.13;;;3.34;60.84
21730;BME280;11027;51.030;13.812;2023-04-07T06:38:18;100416.41;;;3.32;60.71
21730;BME280;11027;51.030;13.812;2023-04-07T06:40:43;100413.00;;;3.30;60.72
21730;BME280;11027;51.030;13.812;2023-04-07T06:43:08;100406.13;;;3.37;60.72
21730;BME280;11027;51.030;13.812;2023-04-07T06:45:33;100409.75;;;3.48;60.45
21730;BME280;11027;51.030;13.812;2023-04-07T06:47:59;100410.31;;;3.51;60.56
21730;BME280;11027;51.030;13.812;2023-04-07T06:50:24;100399.19;;;3.56;60.38
21730;BME280;11027;51.030;13.812;2023-04-07T06:52:49;100405.00;;;3.61;60.43
21730;BME280;11027;51.030;13.812;2023-04-07T06:55:15;100411.59;;;3.68;60.78
21730;BME280;11027;51.030;13.812;2023-04-07T06:57:40;100415.28;;;3.67;60.75
21730;BME280;11027;51.030;13.812;2023-04-07T07:00:06;100404.97;;;3.72;60.37
21730;BME280;11027;51.030;13.812;2023-04-07T07:02:32;100405.69;;;3.74;60.38
21730;BME280;11027;51.030;13.812;2023-04-07T07:04:57;100398.06;;;3.79;60.19
21730;BME280;11027;51.030;13.812;2023-04-07T07:07:22;100414.28;;;3.89;60.03
21730;BME280;11027;51.030;13.812;2023-04-07T07:09:50;100399.91;;;4.00;59.81
21730;BME280;11027;51.030;13.812;2023-04-07T07:12:15;100400.53;;;4.13;60.09
21730;BME280;11027;51.030;13.812;2023-04-07T07:14:42;100404.88;;;4.26;59.97
21730;BME280;11027;51.030;13.812;2023-04-07T07:17:07;100397.53;;;4.37;59.64
21730;BME280;11027;51.030;13.812;2023-04-07T07:19:32;100400.00;;;4.50;59.40
21730;BME280;11027;51.030;13.812;2023-04-07T07:21:57;100401.19;;;4.57;58.76
21730;BME280;11027;51.030;13.812;2023-04-07T07:24:23;100400.03;;;4.60;58.89
21730;BME280;11027;51.030;13.812;2023-04-07T07:26:48;100400.19;;;4.58;58.57
21730;BME280;11027;51.030;13.812;2023-04-07T07:29:13;100399.19;;;4.59;58.51
21730;BME280;11027;51.030;13.812;2023-04-07T07:31:39;100403.19;;;4.65;58.37
21730;BME280;11027;51.030;13.812;2023-04-07T07:34:04;100399.38;;;4.68;57.95
21730;BME280;11027;51.030;13.812;2023-04-07T07:36:29;100408.78;;;4.73;57.74
21730;BME280;11027;51.030;13.812;2023-04-07T07:38:56;100411.03;;;4.78;57.66
21730;BME280;11027;51.030;13.812;2023-04-07T07:41:22;100421.03;;;4.87;57.62
21730;BME280;11027;51.030;13.812;2023-04-07T07:43:47;100416.19;;;4.91;57.23
21730;BME280;11027;51.030;13.812;2023-04-07T07:46:13;100419.34;;;4.96;56.97
21730;BME280;11027;51.030;13.812;2023-04-07T07:48:38;100417.34;;;4.98;56.44
21730;BME280;11027;51.030;13.812;2023-04-07T07:51:03;100415.97;;;5.04;56.29
21730;BME280;11027;51.030;13.812;2023-04-07T07:53:29;100413.41;;;5.12;56.06
21730;BME280;11027;51.030;13.812;2023-04-07T07:55:54;100418.53;;;5.15;56.03
21730;BME280;11027;51.030;13.812;2023-04-07T07:58:20;100415.97;;;5.23;55.68
21730;BME280;11027;51.030;13.812;2023-04-07T08:00:45;100417.44;;;5.27;55.62
21730;BME280;11027;51.030;13.812;2023-04-07T08:03:11;100410.88;;;5.30;55.70
21730;BME280;11027;51.030;13.812;2023-04-07T08:05:36;100420.28;;;5.35;55.84
21730;BME280;11027;51.030;13.812;2023-04-07T08:08:01;100422.84;;;5.47;55.63
21730;BME280;11027;51.030;13.812;2023-04-07T08:10:27;100424.00;;;5.64;55.45
21730;BME280;11027;51.030;13.812;2023-04-07T08:12:52;100420.09;;;5.86;55.20
21730;BME280;11027;51.030;13.812;2023-04-07T08:15:18;100419.25;;;6.14;55.07
21730;BME280;11027;51.030;13.812;2023-04-07T08:17:43;100420.44;;;6.49;54.53
21730;BME280;11027;51.030;13.812;2023-04-07T08:20:09;100416.84;;;6.86;53.98
21730;BME280;11027;51.030;13.812;2023-04-07T08:22:35;100425.34;;;7.19;53.02
21730;BME280;11027;51.030;13.812;2023-04-07T08:25:01;100422.03;;;7.43;52.02
21730;BME280;11027;51.030;13.812;2023-04-07T08:27:26;100419.03;;;7.64;51.45
21730;BME280;11027;51.030;13.812;2023-04-07T08:29:59;100418.16;;;7.81;50.69
21730;BME280;11027;51.030;13.812;2023-04-07T08:32:25;100410.19;;;7.98;50.30
21730;BME280;11027;51.030;13.812;2023-04-07T08:34:50;100416.41;;;8.16;49.95
21730;BME280;11027;51.030;13.812;2023-04-07T08:37:15;100415.84;;;8.31;49.76
21730;BME280;11027;51.030;13.812;2023-04-07T08:39:41;100409.84;;;8.45;49.29
21730;BME280;11027;51.030;13.812;2023-04-07T08:42:07;100413.31;;;8.64;49.13
21730;BME280;11027;51.030;13.812;2023-04-07T08:44:35;100410.00;;;8.78;48.83
21730;BME280;11027;51.030;13.812;2023-04-07T08:47:03;100407.31;;;8.86;48.58
21730;BME280;11027;51.030;13.812;2023-04-07T08:49:32;100403.28;;;8.98;48.58
21730;BME280;11027;51.030;13.812;2023-04-07T08:52:05;100408.41;;;9.10;48.27
21730;BME280;11027;51.030;13.812;2023-04-07T08:54:33;100406.56;;;9.18;47.95
21730;BME280;11027;51.030;13.812;2023-04-07T08:56:59;100396.22;;;9.22;47.52
21730;BME280;11027;51.030;13.812;2023-04-07T08:59:26;100402.34;;;9.24;47.15
21730;BME280;11027;51.030;13.812;2023-04-07T09:01:53;100407.47;;;9.35;46.97
21730;BME280;11027;51.030;13.812;2023-04-07T09:04:19;100394.22;;;9.40;46.66
21730;BME280;11027;51.030;13.812;2023-04-07T09:06:47;100392.00;;;9.36;46.40
21730;BME280;11027;51.030;13.812;2023-04-07T09:09:13;100403.72;;;9.36;46.50
21730;BME280;11027;51.030;13.812;2023-04-07T09:11:39;100397.63;;;9.43;46.53
21730;BME280;11027;51.030;13.812;2023-04-07T09:14:05;100399.66;;;9.57;46.19
21730;BME280;11027;51.030;13.812;2023-04-07T09:16:31;100392.88;;;9.69;45.95
21730;BME280;11027;51.030;13.812;2023-04-07T09:18:57;100391.88;;;9.78;45.67
21730;BME280;11027;51.030;13.812;2023-04-07T09:21:22;100394.91;;;9.84;45.40
21730;BME280;11027;51.030;13.812;2023-04-07T09:23:48;100394.25;;;9.81;45.10
21730;BME280;11027;51.030;13.812;2023-04-07T09:28:43;100390.88;;;9.88;44.65
21730;BME280;11027;51.030;13.812;2023-04-07T09:31:09;100392.03;;;9.93;44.37
21730;BME280;11027;51.030;13.812;2023-04-07T09:33:34;100391.19;;;10.01;44.27
21730;BME280;11027;51.030;13.812;2023-04-07T09:36:01;100385.88;;;10.08;44.04
21730;BME280;11027;51.030;13.812;2023-04-07T09:38:34;100385.03;;;10.15;43.75
21730;BME280;11027;51.030;13.812;2023-04-07T09:41:15;100386.72;;;10.25;43.33
21730;BME280;11027;51.030;13.812;2023-04-07T09:43:43;100375.47;;;10.28;43.20
21730;BME280;11027;51.030;13.812;2023-04-07T09:46:14;100378.88;;;10.38;43.12
21730;BME280;11027;51.030;13.812;2023-04-07T09:48:40;100365.59;;;10.51;43.06
21730;BME280;11027;51.030;13.812;2023-04-07T09:51:11;100372.22;;;10.57;42.77
21730;BME280;11027;51.030;13.812;2023-04-07T09:53:46;100360.44;;;10.65;42.57
21730;BME280;11027;51.030;13.812;2023-04-07T09:56:13;100364.47;;;10.77;42.51
21730;BME280;11027;51.030;13.812;2023-04-07T09:58:40;100363.75;;;10.83;42.48
21730;BME280;11027;51.030;13.812;2023-04-07T10:01:07;100359.66;;;10.87;42.31
21730;BME280;11027;51.030;13.812;2023-04-07T10:03:37;100368.16;;;10.84;42.13
21730;BME280;11027;51.030;13.812;2023-04-07T10:06:03;100370.25;;;10.74;40.62
21730;BME280;11027;51.030;13.812;2023-04-07T10:08:32;100371.34;;;10.65;39.98
21730;BME280;11027;51.030;13.812;2023-04-07T10:10:59;100374.09;;;10.56;39.45
21730;BME280;11027;51.030;13.812;2023-04-07T10:13:27;100373.75;;;10.51;38.91
21730;BME280;11027;51.030;13.812;2023-04-07T10:15:53;100374.78;;;10.50;38.76
21730;BME280;11027;51.030;13.812;2023-04-07T10:18:19;100373.91;;;10.50;38.61
21730;BME280;11027;51.030;13.812;2023-04-07T10:20:46;100374.78;;;10.50;38.71
21730;BME280;11027;51.030;13.812;2023-04-07T10:23:33;100369.34;;;10.50;38.52
21730;BME280;11027;51.030;13.812;2023-04-07T10:26:02;100375.78;;;10.57;38.46
21730;BME280;11027;51.030;13.812;2023-04-07T10:28:32;100374.38;;;10.70;38.17
21730;BME280;11027;51.030;13.812;2023-04-07T10:30:58;100365.28;;;10.86;37.44
21730;BME280;11027;51.030;13.812;2023-04-07T10:33:47;100366.03;;;11.02;37.08
21730;BME280;11027;51.030;13.812;2023-04-07T10:36:13;100363.91;;;11.21;37.18
21730;BME280;11027;51.030;13.812;2023-04-07T10:38:38;100371.25;;;11.44;36.78
21730;BME280;11027;51.030;13.812;2023-04-07T10:41:35;100359.66;;;11.65;36.77
21730;BME280;11027;51.030;13.812;2023-04-07T10:44:01;100362.22;;;11.81;36.15
21730;BME280;11027;51.030;13.812;2023-04-07T10:49:13;100355.75;;;12.05;35.85
21730;BME280;11027;51.030;13.812;2023-04-07T10:51:39;100361.69;;;12.24;35.34
21730;BME280;11027;51.030;13.812;2023-04-07T10:54:21;100360.59;;;12.33;35.29
21730;BME280;11027;51.030;13.812;2023-04-07T10:59:34;100359.63;;;12.55;35.34
21730;BME280;11027;51.030;13.812;2023-04-07T11:04:41;100358.38;;;12.88;35.06
21730;BME280;11027;51.030;13.812;2023-04-07T11:07:07;100358.44;;;12.94;34.30
21730;BME280;11027;51.030;13.812;2023-04-07T11:09:33;100362.25;;;12.93;33.86
21730;BME280;11027;51.030;13.812;2023-04-07T11:11:58;100359.22;;;12.88;33.17
21730;BME280;11027;51.030;13.812;2023-04-07T11:14:28;100352.16;;;12.94;33.71
21730;BME280;11027;51.030;13.812;2023-04-07T11:16:53;100356.50;;;12.88;32.80
21730;BME280;11027;51.030;13.812;2023-04-07T11:19:19;100354.16;;;12.85;33.02
21730;BME280;11027;51.030;13.812;2023-04-07T11:21:44;100352.16;;;12.94;33.17
21730;BME280;11027;51.030;13.812;2023-04-07T11:24:10;100353.28;;;12.99;32.76
21730;BME280;11027;51.030;13.812;2023-04-07T11:26:37;100342.22;;;13.08;33.22
21730;BME280;11027;51.030;13.812;2023-04-07T11:29:03;100346.13;;;13.20;33.03
21730;BME280;11027;51.030;13.812;2023-04-07T11:31:29;100347.53;;;13.31;33.01
21730;BME280;11027;51.030;13.812;2023-04-07T11:34:04;100343.97;;;13.52;33.31
21730;BME280;11027;51.030;13.812;2023-04-07T11:38:58;100345.00;;;13.94;33.45
21730;BME280;11027;51.030;13.812;2023-04-07T11:41:28;100333.97;;;14.15;33.21
21730;BME280;11027;51.030;13.812;2023-04-07T11:44:11;100336.81;;;14.29;32.73
21730;BME280;11027;51.030;13.812;2023-04-07T11:46:51;100340.03;;;14.39;32.18
21730;BME280;11027;51.030;13.812;2023-04-07T11:49:17;100340.03;;;14.39;32.12
21730;BME280;11027;51.030;13.812;2023-04-07T11:51:43;100338.13;;;14.39;32.60
21730;BME280;11027;51.030;13.812;2023-04-07T11:54:09;100340.94;;;14.46;32.89
21730;BME280;11027;51.030;13.812;2023-04-07T11:56:45;100333.75;;;14.45;32.53
21730;BME280;11027;51.030;13.812;2023-04-07T11:59:23;100334.81;;;14.44;32.62
21730;BME280;11027;51.030;13.812;2023-04-07T12:01:50;100334.56;;;14.39;32.48
21730;BME280;11027;51.030;13.812;2023-04-07T12:04:16;100327.34;;;14.31;32.63
21730;BME280;11027;51.030;13.812;2023-04-07T12:06:44;100330.41;;;14.21;32.74
21730;BME280;11027;51.030;13.812;2023-04-07T12:09:32;100330.94;;;14.04;32.33
21730;BME280;11027;51.030;13.812;2023-04-07T12:12:01;100334.28;;;13.99;32.65
21730;BME280;11027;51.030;13.812;2023-04-07T12:14:26;100334.03;;;13.94;32.13
21730;BME280;11027;51.030;13.812;2023-04-07T12:16:52;100327.19;;;13.83;32.61
21730;BME280;11027;51.030;13.812;2023-04-07T12:19:21;100327.28;;;13.68;32.82
21730;BME280;11027;51.030;13.812;2023-04-07T12:21:47;100332.75;;;13.68;33.23
21730;BME280;11027;51.030;13.812;2023-04-07T12:24:12;100334.84;;;13.66;33.00
21730;BME280;11027;51.030;13.812;2023-04-07T12:26:37;100325.84;;;13.51;33.26
21730;BME280;11027;51.030;13.812;2023-04-07T12:29:02;100329.97;;;13.40;33.31
21730;BME280;11027;51.030;13.812;2023-04-07T12:31:32;100328.06;;;13.40;33.13
21730;BME280;11027;51.030;13.812;2023-04-07T12:33:58;100332.19;;;13.51;33.61
21730;BME280;11027;51.030;13.812;2023-04-07T12:36:24;100323.63;;;13.61;33.85
21730;BME280;11027;51.030;13.812;2023-04-07T12:38:54;100330.81;;;13.62;33.49
21730;BME280;11027;51.030;13.812;2023-04-07T12:41:19;100332.25;;;13.58;33.78
21730;BME280;11027;51.030;13.812;2023-04-07T12:43:44;100326.72;;;13.51;33.68
21730;BME280;11027;51.030;13.812;2023-04-07T12:46:10;100327.56;;;13.52;34.36
21730;BME280;11027;51.030;13.812;2023-04-07T12:48:35;100331.31;;;13.51;34.41
21730;BME280;11027;51.030;13.812;2023-04-07T12:51:00;100325.19;;;13.70;34.77
21730;BME280;11027;51.030;13.812;2023-04-07T12:53:26;100325.88;;;14.00;34.69
21730;BME280;11027;51.030;13.812;2023-04-07T12:55:51;100320.59;;;14.34;34.65
21730;BME280;11027;51.030;13.812;2023-04-07T12:58:17;100326.41;;;14.52;33.97
21730;BME280;11027;51.030;13.812;2023-04-07T13:00:43;100327.91;;;14.55;33.63